sensor_id;sensor_type;location;lat;lon;timestamp;pressure;altitude;pressure_sealevel;temperature;humidity
21817;BME280;13247;47.504;7.382;2023-03-01T00:00:29;97874.88;;;1.09;100.00
21817;BME280;13247;47.504;7.382;2023-03-01T00:03:14;97872.31;;;1.10;100.00
21817;BME280;13247;47.504;7.382;2023-03-01T00:05:58;97866.53;;;1.29;100.00
21817;BME280;13247;47.504;7.382;2023-03-01T00:08:43;97863.28;;;1.41;100.00
21817;BME280;13247;47.504;7.382;2023-03-01T00:11:30;97862.44;;;1.43;100.00
21817;BME280;13247;47.504;7.382;2023-03-01T00:14:15;97854.63;;;1.39;100.00
21817;BME280;13247;47.504;7.382;2023-03-01T00:17:03;97860.69;;;1.42;100.00
21817;BME280;13247;47.504;7.382;2023-03-01T00:19:47;97856.28;;;1.34;100.00
21817;BME280;13247;47.504;7.382;2023-03-01T00:22:33;97855.53;;;1.42;100.00
21817;BME280;13247;47.504;7.382;2023-03-01T00:25:17;97853.94;;;1.53;100.00
21817;BME280;13247;47.504;7.382;2023-03-01T00:28:02;97861.31;;;1.25;100.00
21817;BME280;13247;47.504;7.382;2023-03-01T00:30:46;97858.72;;;1.25;100.00
21817;BME280;13247;47.504;7.382;2023-03-01T00:33:31;97865.06;;;0.85;100.00
21817;BME280;13247;47.504;7.382;2023-03-01T00:36:16;97857.69;;;1.11;100.00
21817;BME280;13247;47.504;7.382;2023-03-01T00:39:01;97853.63;;;1.28;100.00
21817;BME280;13247;47.504;7.382;2023-03-01T00:41:47;97861.31;;;1.23;100.00
21817;BME280;13247;47.504;7.382;2023-03-01T00:44:32;97866.97;;;0.97;100.00
21817;BME280;13247;47.504;7.382;2023-03-01T00:47:16;97861.59;;;0.83;100.00
21817;BME280;13247;47.504;7.382;2023-03-01T00:50:01;97862.25;;;0.70;100.00
21817;BME280;13247;47.504;7.382;2023-03-01T00:52:46;97850.63;;;0.98;100.00
21817;BME280;13247;47.504;7.382;2023-03-01T00:55:30;97858.25;;;0.90;100.00
21817;BME280;13247;47.504;7.382;2023-03-01T00:58:15;97855.59;;;0.86;100.00
21817;BME280;13247;47.504;7.382;2023-03-01T01:01:01;97857.53;;;0.43;100.00
21817;BME280;13247;47.504;7.382;2023-03-01T01:04:00;97849.88;;;0.49;100.00
21817;BME280;13247;47.504;7.382;2023-03-01T01:06:46;97850.03;;;0.58;100.00
21817;BME280;13247;47.504;7.382;2023-03-01T01:09:31;97847.66;;;0.72;100.00
21817;BME280;13247;47.504;7.382;2023-03-01T01:12:15;97841.88;;;0.87;100.00
21817;BME280;13247;47.504;7.382;2023-03-01T01:15:00;97837.97;;;0.57;100.00
21817;BME280;13247;47.504;7.382;2023-03-01T01:17:44;97830.13;;;0.50;100.00
21817;BME280;13247;47.504;7.382;2023-03-01T01:20:29;97830.94;;;0.49;100.00
21817;BME280;13247;47.504;7.382;2023-03-01T01:23:14;97826.66;;;0.49;100.00
21817;BME280;13247;47.504;7.382;2023-03-01T01:26:13;97824.59;;;0.27;100.00
21817;BME280;13247;47.504;7.382;2023-03-01T01:29:02;97818.56;;;0.27;100.00
21817;BME280;13247;47.504;7.382;2023-03-01T01:31:47;97822.63;;;0.13;100.00
21817;BME280;13247;47.504;7.382;2023-03-01T01:34:32;97819.63;;;0.38;100.00
21817;BME280;13247;47.504;7.382;2023-03-01T01:37:17;97818.22;;;0.07;100.00
21817;BME280;13247;47.504;7.382;2023-03-01T01:40:02;97810.06;;;0.32;100.00
21817;BME280;13247;47.504;7.382;2023-03-01T01:42:50;97808.09;;;0.18;100.00
21817;BME280;13247;47.504;7.382;2023-03-01T01:45:36;97805.78;;;0.33;100.00
21817;BME280;13247;47.504;7.382;2023-03-01T01:48:23;97803.44;;;0.49;100.00
21817;BME280;13247;47.504;7.382;2023-03-01T01:51:14;97799.81;;;0.38;100.00
21817;BME280;13247;47.504;7.382;2023-03-01T01:54:01;97799.09;;;-0.06;100.00
21817;BME280;13247;47.504;7.382;2023-03-01T01:56:51;97794.31;;;0.16;100.00
21817;BME280;13247;47.504;7.382;2023-03-01T01:59:38;97801.16;;;0.15;100.00
21817;BME280;13247;47.504;7.382;2023-03-01T02:02:24;97791.91;;;0.26;100.00
21817;BME280;13247;47.504;7.382;2023-03-01T02:05:18;97794.13;;;0.05;100.00
21817;BME280;13247;47.504;7.382;2023-03-01T02:08:06;97795.66;;;-0.06;100.00
21817;BME280;13247;47.504;7.382;2023-03-01T02:10:53;97789.88;;;0.09;100.00
21817;BME280;13247;47.504;7.382;2023-03-01T02:13:39;97792.69;;;0.21;100.00
21817;BME280;13247;47.504;7.382;2023-03-01T02:16:23;97784.88;;;0.16;100.00
21817;BME280;13247;47.504;7.382;2023-03-01T02:19:14;97779.63;;;0.10;100.00
21817;BME280;13247;47.504;7.382;2023-03-01T02:22:03;97779.47;;;0.01;100.00
21817;BME280;13247;47.504;7.382;2023-03-01T02:28:31;97771.66;;;-0.02;100.00
21817;BME280;13247;47.504;7.382;2023-03-01T02:31:18;97769.88;;;-0.06;100.00
21817;BME280;13247;47.504;7.382;2023-03-01T02:34:24;97775.63;;;-0.24;100.00
21817;BME280;13247;47.504;7.382;2023-03-01T02:37:13;97772.25;;;-0.20;100.00
21817;BME280;13247;47.504;7.382;2023-03-01T02:40:04;97767.25;;;-0.11;100.00
21817;BME280;13247;47.504;7.382;2023-03-01T02:42:53;97770.56;;;-0.16;100.00
21817;BME280;13247;47.504;7.382;2023-03-01T02:45:50;97767.72;;;-0.31;100.00
21817;BME280;13247;47.504;7.382;2023-03-01T02:48:47;97761.53;;;-0.42;100.00
21817;BME280;13247;47.504;7.382;2023-03-01T02:57:45;97762.03;;;-0.61;100.00
21817;BME280;13247;47.504;7.382;2023-03-01T03:00:35;97764.56;;;-0.63;100.00
21817;BME280;13247;47.504;7.382;2023-03-01T03:03:24;97752.38;;;-0.71;100.00
21817;BME280;13247;47.504;7.382;2023-03-01T03:06:09;97760.25;;;-1.07;100.00
21817;BME280;13247;47.504;7.382;2023-03-01T03:08:54;97749.38;;;-0.94;100.00
21817;BME280;13247;47.504;7.382;2023-03-01T03:11:39;97753.19;;;-1.17;100.00
21817;BME280;13247;47.504;7.382;2023-03-01T03:14:25;97748.47;;;-0.98;100.00
21817;BME280;13247;47.504;7.382;2023-03-01T03:17:10;97744.13;;;-1.00;100.00
21817;BME280;13247;47.504;7.382;2023-03-01T03:19:54;97747.72;;;-0.91;100.00
21817;BME280;13247;47.504;7.382;2023-03-01T03:22:40;97740.06;;;-0.89;100.00
21817;BME280;13247;47.504;7.382;2023-03-01T03:25:25;97749.28;;;-0.99;100.00
21817;BME280;13247;47.504;7.382;2023-03-01T03:28:10;97730.94;;;-1.15;100.00
21817;BME280;13247;47.504;7.382;2023-03-01T03:30:55;97740.84;;;-0.93;100.00
21817;BME280;13247;47.504;7.382;2023-03-01T03:33:40;97741.94;;;-0.81;100.00
21817;BME280;13247;47.504;7.382;2023-03-01T03:36:24;97740.06;;;-0.88;100.00
21817;BME280;13247;47.504;7.382;2023-03-01T03:39:09;97729.00;;;-0.84;100.00
21817;BME280;13247;47.504;7.382;2023-03-01T03:41:54;97734.78;;;-0.95;100.00
21817;BME280;13247;47.504;7.382;2023-03-01T03:44:39;97737.69;;;-0.78;100.00
21817;BME280;13247;47.504;7.382;2023-03-01T03:47:24;97746.03;;;-0.89;100.00
21817;BME280;13247;47.504;7.382;2023-03-01T03:50:11;97741.69;;;-0.93;100.00
21817;BME280;13247;47.504;7.382;2023-03-01T03:52:56;97735.59;;;-0.98;100.00
21817;BME280;13247;47.504;7.382;2023-03-01T03:55:40;97725.53;;;-0.86;100.00
21817;BME280;13247;47.504;7.382;2023-03-01T03:58:26;97727.22;;;-0.88;100.00
21817;BME280;13247;47.504;7.382;2023-03-01T04:01:10;97726.13;;;-0.97;100.00
21817;BME280;13247;47.504;7.382;2023-03-01T04:03:55;97728.38;;;-1.15;100.00
21817;BME280;13247;47.504;7.382;2023-03-01T04:06:39;97723.88;;;-1.25;100.00
21817;BME280;13247;47.504;7.382;2023-03-01T04:09:25;97731.25;;;-1.42;100.00
21817;BME280;13247;47.504;7.382;2023-03-01T04:12:10;97726.72;;;-1.52;100.00
21817;BME280;13247;47.504;7.382;2023-03-01T04:14:54;97722.16;;;-1.65;100.00
21817;BME280;13247;47.504;7.382;2023-03-01T04:17:43;97728.16;;;-1.65;100.00
21817;BME280;13247;47.504;7.382;2023-03-01T04:20:30;97734.50;;;-1.50;100.00
21817;BME280;13247;47.504;7.382;2023-03-01T04:23:19;97729.69;;;-1.34;100.00
21817;BME280;13247;47.504;7.382;2023-03-01T04:26:05;97726.66;;;-1.15;100.00
21817;BME280;13247;47.504;7.382;2023-03-01T04:28:49;97726.50;;;-1.22;100.00
21817;BME280;13247;47.504;7.382;2023-03-01T04:31:35;97728.03;;;-1.32;100.00
21817;BME280;13247;47.504;7.382;2023-03-01T04:34:19;97736.72;;;-1.27;100.00
21817;BME280;13247;47.504;7.382;2023-03-01T04:37:04;97727.31;;;-1.25;100.00
21817;BME280;13247;47.504;7.382;2023-03-01T04:39:48;97738.31;;;-1.32;100.00
21817;BME280;13247;47.504;7.382;2023-03-01T04:42:33;97728.38;;;-1.54;100.00
21817;BME280;13247;47.504;7.382;2023-03-01T04:45:17;97725.34;;;-1.75;100.00
21817;BME280;13247;47.504;7.382;2023-03-01T04:48:03;97719.16;;;-1.85;100.00
21817;BME280;13247;47.504;7.382;2023-03-01T04:50:48;97733.16;;;-1.71;100.00
21817;BME280;13247;47.504;7.382;2023-03-01T04:53:33;97737.91;;;-1.87;100.00
21817;BME280;13247;47.504;7.382;2023-03-01T04:56:21;97728.97;;;-1.67;100.00
21817;BME280;13247;47.504;7.382;2023-03-01T04:59:07;97733.63;;;-1.88;100.00
21817;BME280;13247;47.504;7.382;2023-03-01T05:01:55;97735.09;;;-1.98;100.00
21817;BME280;13247;47.504;7.382;2023-03-01T05:04:40;97730.56;;;-1.72;100.00
21817;BME280;13247;47.504;7.382;2023-03-01T05:07:25;97726.59;;;-1.95;100.00
21817;BME280;13247;47.504;7.382;2023-03-01T05:10:10;97724.41;;;-2.16;100.00
21817;BME280;13247;47.504;7.382;2023-03-01T05:12:56;97721.69;;;-1.86;100.00
21817;BME280;13247;47.504;7.382;2023-03-01T05:15:42;97718.97;;;-1.55;100.00
21817;BME280;13247;47.504;7.382;2023-03-01T05:18:29;97719.09;;;-1.49;100.00
21817;BME280;13247;47.504;7.382;2023-03-01T05:21:16;97711.13;;;-1.61;100.00
21817;BME280;13247;47.504;7.382;2023-03-01T05:24:01;97710.47;;;-1.51;100.00
21817;BME280;13247;47.504;7.382;2023-03-01T05:26:46;97695.97;;;-1.47;100.00
21817;BME280;13247;47.504;7.382;2023-03-01T05:29:32;97695.34;;;-1.37;100.00
21817;BME280;13247;47.504;7.382;2023-03-01T05:32:19;97697.72;;;-1.46;100.00
21817;BME280;13247;47.504;7.382;2023-03-01T05:35:04;97705.22;;;-1.55;100.00
21817;BME280;13247;47.504;7.382;2023-03-01T05:37:49;97703.31;;;-1.24;100.00
21817;BME280;13247;47.504;7.382;2023-03-01T05:40:34;97689.91;;;-1.51;100.00
21817;BME280;13247;47.504;7.382;2023-03-01T05:43:19;97691.16;;;-1.31;100.00
21817;BME280;13247;47.504;7.382;2023-03-01T05:46:04;97688.78;;;-1.22;100.00
21817;BME280;13247;47.504;7.382;2023-03-01T05:48:49;97692.47;;;-1.51;100.00
21817;BME280;13247;47.504;7.382;2023-03-01T05:51:33;97682.38;;;-1.42;100.00
21817;BME280;13247;47.504;7.382;2023-03-01T05:54:19;97681.81;;;-1.29;100.00
21817;BME280;13247;47.504;7.382;2023-03-01T05:57:04;97668.50;;;-1.50;100.00
21817;BME280;13247;47.504;7.382;2023-03-01T05:59:48;97676.09;;;-1.14;100.00
21817;BME280;13247;47.504;7.382;2023-03-01T06:02:33;97667.31;;;-1.24;100.00
21817;BME280;13247;47.504;7.382;2023-03-01T06:05:18;97656.13;;;-1.26;100.00
21817;BME280;13247;47.504;7.382;2023-03-01T06:08:03;97658.09;;;-1.14;100.00
21817;BME280;13247;47.504;7.382;2023-03-01T06:10:48;97650.88;;;-1.32;100.00
21817;BME280;13247;47.504;7.382;2023-03-01T06:13:33;97657.72;;;-1.32;100.00
21817;BME280;13247;47.504;7.382;2023-03-01T06:16:17;97660.97;;;-0.98;100.00
21817;BME280;13247;47.504;7.382;2023-03-01T06:19:02;97655.03;;;-0.94;100.00
21817;BME280;13247;47.504;7.382;2023-03-01T06:21:46;97657.53;;;-0.97;100.00
21817;BME280;13247;47.504;7.382;2023-03-01T06:24:31;97651.25;;;-1.12;100.00
21817;BME280;13247;47.504;7.382;2023-03-01T06:27:16;97657.03;;;-1.22;100.00
21817;BME280;13247;47.504;7.382;2023-03-01T06:30:01;97660.66;;;-1.14;100.00
21817;BME280;13247;47.504;7.382;2023-03-01T06:32:47;97657.59;;;-0.94;100.00
21817;BME280;13247;47.504;7.382;2023-03-01T06:35:32;97662.00;;;-0.87;100.00
21817;BME280;13247;47.504;7.382;2023-03-01T06:38:17;97659.59;;;-1.24;100.00
21817;BME280;13247;47.504;7.382;2023-03-01T06:41:03;97673.44;;;-1.19;100.00
21817;BME280;13247;47.504;7.382;2023-03-01T06:43:48;97683.72;;;-1.17;100.00
21817;BME280;13247;47.504;7.382;2023-03-01T06:46:33;97670.25;;;-1.47;100.00
21817;BME280;13247;47.504;7.382;2023-03-01T06:49:17;97671.94;;;-1.49;100.00
21817;BME280;13247;47.504;7.382;2023-03-01T06:52:02;97669.97;;;-1.21;100.00
21817;BME280;13247;47.504;7.382;2023-03-01T06:54:47;97678.81;;;-1.07;100.00
21817;BME280;13247;47.504;7.382;2023-03-01T06:57:32;97682.84;;;-1.18;100.00
21817;BME280;13247;47.504;7.382;2023-03-01T07:00:17;97672.81;;;-1.06;100.00
21817;BME280;13247;47.504;7.382;2023-03-01T07:03:02;97672.47;;;-1.22;100.00
21817;BME280;13247;47.504;7.382;2023-03-01T07:05:49;97676.94;;;-1.57;100.00
21817;BME280;13247;47.504;7.382;2023-03-01T07:08:37;97675.81;;;-1.28;100.00
21817;BME280;13247;47.504;7.382;2023-03-01T07:11:21;97677.56;;;-1.25;100.00
21817;BME280;13247;47.504;7.382;2023-03-01T07:14:06;97675.56;;;-0.97;100.00
21817;BME280;13247;47.504;7.382;2023-03-01T07:16:52;97670.47;;;-0.95;100.00
21817;BME280;13247;47.504;7.382;2023-03-01T07:19:37;97676.28;;;-0.57;100.00
21817;BME280;13247;47.504;7.382;2023-03-01T07:22:21;97669.06;;;-0.76;100.00
21817;BME280;13247;47.504;7.382;2023-03-01T07:25:06;97674.44;;;-0.64;100.00
21817;BME280;13247;47.504;7.382;2023-03-01T07:27:52;97682.22;;;-0.61;100.00
21817;BME280;13247;47.504;7.382;2023-03-01T07:30:37;97677.28;;;-0.48;100.00
21817;BME280;13247;47.504;7.382;2023-03-01T07:33:21;97674.63;;;-0.52;100.00
21817;BME280;13247;47.504;7.382;2023-03-01T07:36:06;97671.16;;;-0.54;100.00
21817;BME280;13247;47.504;7.382;2023-03-01T07:38:52;97673.94;;;-0.44;100.00
21817;BME280;13247;47.504;7.382;2023-03-01T07:41:36;97677.63;;;-0.28;100.00
21817;BME280;13247;47.504;7.382;2023-03-01T07:44:22;97673.41;;;-0.23;100.00
21817;BME280;13247;47.504;7.382;2023-03-01T07:47:06;97669.91;;;-0.27;100.00
21817;BME280;13247;47.504;7.382;2023-03-01T07:49:51;97672.38;;;-0.34;100.00
21817;BME280;13247;47.504;7.382;2023-03-01T07:52:35;97671.75;;;-0.21;100.00
21817;BME280;13247;47.504;7.382;2023-03-01T07:55:20;97670.25;;;-0.07;100.00
21817;BME280;13247;47.504;7.382;2023-03-01T07:58:05;97668.31;;;-0.19;100.00
21817;BME280;13247;47.504;7.382;2023-03-01T08:00:49;97653.78;;;-0.15;100.00
21817;BME280;13247;47.504;7.382;2023-03-01T08:03:34;97644.28;;;-0.19;100.00
21817;BME280;13247;47.504;7.382;2023-03-01T08:06:19;97658.47;;;-0.45;100.00
21817;BME280;13247;47.504;7.382;2023-03-01T08:09:04;97653.22;;;-0.50;100.00
21817;BME280;13247;47.504;7.382;2023-03-01T08:11:48;97655.34;;;-0.25;100.00
21817;BME280;13247;47.504;7.382;2023-03-01T08:14:33;97645.44;;;-0.01;100.00
21817;BME280;13247;47.504;7.382;2023-03-01T08:17:18;97649.63;;;-0.07;100.00
21817;BME280;13247;47.504;7.382;2023-03-01T08:20:03;97645.44;;;0.03;100.00
21817;BME280;13247;47.504;7.382;2023-03-01T08:22:50;97646.38;;;0.06;100.00
21817;BME280;13247;47.504;7.382;2023-03-01T08:25:35;97647.44;;;0.22;100.00
21817;BME280;13247;47.504;7.382;2023-03-01T08:28:20;97641.25;;;0.09;100.00
21817;BME280;13247;47.504;7.382;2023-03-01T08:31:23;97642.13;;;0.11;100.00
21817;BME280;13247;47.504;7.382;2023-03-01T08:34:11;97640.50;;;0.15;100.00
21817;BME280;13247;47.504;7.382;2023-03-01T08:36:56;97641.41;;;0.21;100.00
21817;BME280;13247;47.504;7.382;2023-03-01T08:39:41;97638.00;;;0.22;100.00
21817;BME280;13247;47.504;7.382;2023-03-01T08:42:26;97634.25;;;0.00;100.00
21817;BME280;13247;47.504;7.382;2023-03-01T08:45:11;97633.44;;;0.03;100.00
21817;BME280;13247;47.504;7.382;2023-03-01T08:47:56;97636.38;;;0.30;100.00
21817;BME280;13247;47.504;7.382;2023-03-01T08:50:40;97628.59;;;0.26;100.00
21817;BME280;13247;47.504;7.382;2023-03-01T08:53:25;97635.50;;;0.28;100.00
21817;BME280;13247;47.504;7.382;2023-03-01T08:56:10;97634.75;;;0.35;100.00
21817;BME280;13247;47.504;7.382;2023-03-01T08:58:55;97639.84;;;0.32;100.00
21817;BME280;13247;47.504;7.382;2023-03-01T09:01:40;97637.88;;;0.13;100.00
21817;BME280;13247;47.504;7.382;2023-03-01T09:04:27;97633.69;;;0.21;100.00
21817;BME280;13247;47.504;7.382;2023-03-01T09:07:11;97634.88;;;-0.17;100.00
21817;BME280;13247;47.504;7.382;2023-03-01T09:09:56;97638.25;;;-0.20;100.00
21817;BME280;13247;47.504;7.382;2023-03-01T09:12:40;97631.34;;;-0.22;100.00
21817;BME280;13247;47.504;7.382;2023-03-01T09:15:25;97614.44;;;-0.02;100.00
21817;BME280;13247;47.504;7.382;2023-03-01T09:18:10;97620.63;;;0.09;100.00
21817;BME280;13247;47.504;7.382;2023-03-01T09:21:07;97610.72;;;0.39;100.00
21817;BME280;13247;47.504;7.382;2023-03-01T09:23:53;97611.69;;;0.49;100.00
21817;BME280;13247;47.504;7.382;2023-03-01T09:26:37;97613.84;;;0.17;100.00
21817;BME280;13247;47.504;7.382;2023-03-01T09:29:22;97607.59;;;-0.03;100.00
21817;BME280;13247;47.504;7.382;2023-03-01T09:32:07;97604.13;;;-0.04;100.00
21817;BME280;13247;47.504;7.382;2023-03-01T09:34:52;97616.69;;;0.34;100.00
21817;BME280;13247;47.504;7.382;2023-03-01T09:37:48;97602.91;;;0.33;100.00
21817;BME280;13247;47.504;7.382;2023-03-01T09:40:34;97611.63;;;0.43;100.00
21817;BME280;13247;47.504;7.382;2023-03-01T09:46:15;97603.25;;;0.59;100.00
21817;BME280;13247;47.504;7.382;2023-03-01T09:49:18;97604.00;;;0.50;100.00
21817;BME280;13247;47.504;7.382;2023-03-01T09:52:23;97599.66;;;0.48;100.00
21817;BME280;13247;47.504;7.382;2023-03-01T09:55:16;97600.47;;;0.45;100.00
21817;BME280;13247;47.504;7.382;2023-03-01T10:04:39;97600.28;;;0.30;100.00
21817;BME280;13247;47.504;7.382;2023-03-01T10:10:28;97590.34;;;0.60;100.00
21817;BME280;13247;47.504;7.382;2023-03-01T10:13:21;97584.25;;;0.55;100.00
21817;BME280;13247;47.504;7.382;2023-03-01T10:16:19;97588.28;;;0.32;100.00
21817;BME280;13247;47.504;7.382;2023-03-01T10:19:52;97591.91;;;0.46;100.00
21817;BME280;13247;47.504;7.382;2023-03-01T10:22:29;97594.50;;;0.49;100.00
21817;BME280;13247;47.504;7.382;2023-03-01T10:25:17;97591.41;;;0.76;100.00
21817;BME280;13247;47.504;7.382;2023-03-01T10:30:58;97582.13;;;0.96;100.00
21817;BME280;13247;47.504;7.382;2023-03-01T10:33:43;97582.06;;;0.92;100.00
21817;BME280;13247;47.504;7.382;2023-03-01T10:36:33;97578.22;;;0.53;100.00
21817;BME280;13247;47.504;7.382;2023-03-01T10:39:20;97580.22;;;0.78;100.00
21817;BME280;13247;47.504;7.382;2023-03-01T10:42:23;97580.38;;;0.94;100.00
21817;BME280;13247;47.504;7.382;2023-03-01T10:45:35;97571.16;;;1.23;100.00
21817;BME280;13247;47.504;7.382;2023-03-01T10:48:21;97567.72;;;1.18;100.00
21817;BME280;13247;47.504;7.382;2023-03-01T10:51:12;97566.78;;;1.10;100.00
21817;BME280;13247;47.504;7.382;2023-03-01T10:54:02;97570.38;;;1.30;100.00
21817;BME280;13247;47.504;7.382;2023-03-01T10:56:49;97566.19;;;1.42;100.00
21817;BME280;13247;47.504;7.382;2023-03-01T10:59:36;97560.06;;;1.31;100.00
21817;BME280;13247;47.504;7.382;2023-03-01T11:02:31;97558.56;;;1.59;100.00
21817;BME280;13247;47.504;7.382;2023-03-01T11:05:23;97561.72;;;1.25;100.00
21817;BME280;13247;47.504;7.382;2023-03-01T11:08:08;97552.75;;;0.84;100.00
21817;BME280;13247;47.504;7.382;2023-03-01T11:11:05;97555.63;;;1.17;100.00
21817;BME280;13247;47.504;7.382;2023-03-01T11:13:54;97546.47;;;1.52;100.00
21817;BME280;13247;47.504;7.382;2023-03-01T11:16:41;97551.50;;;1.38;100.00
21817;BME280;13247;47.504;7.382;2023-03-01T11:19:27;97546.47;;;1.55;100.00
21817;BME280;13247;47.504;7.382;2023-03-01T11:22:17;97543.91;;;1.58;100.00
21817;BME280;13247;47.504;7.382;2023-03-01T11:25:04;97539.75;;;1.83;100.00
21817;BME280;13247;47.504;7.382;2023-03-01T11:27:50;97537.88;;;1.59;100.00
21817;BME280;13247;47.504;7.382;2023-03-01T11:30:41;97539.59;;;1.54;100.00
21817;BME280;13247;47.504;7.382;2023-03-01T11:36:56;97538.84;;;1.73;100.00
21817;BME280;13247;47.504;7.382;2023-03-01T11:40:13;97532.81;;;1.74;100.00
21817;BME280;13247;47.504;7.382;2023-03-01T11:43:09;97526.66;;;1.58;100.00
21817;BME280;13247;47.504;7.382;2023-03-01T12:04:17;97516.59;;;2.04;100.00
21817;BME280;13247;47.504;7.382;2023-03-01T12:07:28;97508.03;;;2.14;100.00
21817;BME280;13247;47.504;7.382;2023-03-01T12:10:25;97502.13;;;2.51;100.00
21817;BME280;13247;47.504;7.382;2023-03-01T12:13:53;97504.63;;;2.34;100.00
21817;BME280;13247;47.504;7.382;2023-03-01T12:29:26;97490.88;;;2.43;100.00
21817;BME280;13247;47.504;7.382;2023-03-01T12:35:18;97481.44;;;2.59;100.00
21817;BME280;13247;47.504;7.382;2023-03-01T12:50:53;97460.78;;;2.93;100.00
21817;BME280;13247;47.504;7.382;2023-03-01T12:53:44;97464.22;;;2.82;100.00
21817;BME280;13247;47.504;7.382;2023-03-01T12:56:34;97452.97;;;3.08;100.00
21817;BME280;13247;47.504;7.382;2023-03-01T13:02:26;97451.25;;;3.03;100.00
21817;BME280;13247;47.504;7.382;2023-03-01T13:08:39;97447.81;;;2.98;100.00
21817;BME280;13247;47.504;7.382;2023-03-01T13:11:27;97445.22;;;3.04;100.00
21817;BME280;13247;47.504;7.382;2023-03-01T13:17:31;97439.16;;;3.34;100.00
21817;BME280;13247;47.504;7.382;2023-03-01T13:20:21;97443.47;;;3.30;100.00
21817;BME280;13247;47.504;7.382;2023-03-01T13:26:17;97440.06;;;2.99;100.00
21817;BME280;13247;47.504;7.382;2023-03-01T13:29:02;97434.84;;;2.92;100.00
21817;BME280;13247;47.504;7.382;2023-03-01T13:34:44;97441.75;;;3.25;100.00
21817;BME280;13247;47.504;7.382;2023-03-01T13:37:34;97427.94;;;3.15;100.00
21817;BME280;13247;47.504;7.382;2023-03-01T13:43:30;97425.38;;;3.03;100.00
21817;BME280;13247;47.504;7.382;2023-03-01T13:46:21;97427.97;;;3.06;100.00
21817;BME280;13247;47.504;7.382;2023-03-01T13:49:14;97433.13;;;3.12;100.00
21817;BME280;13247;47.504;7.382;2023-03-01T13:52:00;97423.63;;;3.15;100.00
21817;BME280;13247;47.504;7.382;2023-03-01T13:54:46;97428.75;;;3.38;100.00
21817;BME280;13247;47.504;7.382;2023-03-01T13:57:34;97415.75;;;3.59;100.00
21817;BME280;13247;47.504;7.382;2023-03-01T14:00:32;97419.22;;;3.60;100.00
21817;BME280;13247;47.504;7.382;2023-03-01T14:03:19;97417.53;;;3.39;100.00
21817;BME280;13247;47.504;7.382;2023-03-01T14:06:05;97405.41;;;3.53;100.00
21817;BME280;13247;47.504;7.382;2023-03-01T14:09:08;97405.44;;;3.37;100.00
21817;BME280;13247;47.504;7.382;2023-03-01T14:12:12;97403.72;;;3.34;100.00
21817;BME280;13247;47.504;7.382;2023-03-01T14:20:53;97422.69;;;3.60;100.00
21817;BME280;13247;47.504;7.382;2023-03-01T14:23:39;97418.31;;;3.71;100.00
21817;BME280;13247;47.504;7.382;2023-03-01T14:26:26;97418.28;;;3.79;100.00
21817;BME280;13247;47.504;7.382;2023-03-01T14:29:34;97410.56;;;3.71;100.00
21817;BME280;13247;47.504;7.382;2023-03-01T14:32:26;97416.50;;;3.91;100.00
21817;BME280;13247;47.504;7.382;2023-03-01T14:35:24;97413.84;;;4.11;100.00
21817;BME280;13247;47.504;7.382;2023-03-01T14:38:28;97414.78;;;3.93;100.00
21817;BME280;13247;47.504;7.382;2023-03-01T14:41:23;97411.25;;;4.11;100.00
21817;BME280;13247;47.504;7.382;2023-03-01T14:44:19;97419.06;;;4.02;100.00
21817;BME280;13247;47.504;7.382;2023-03-01T14:47:10;97420.00;;;3.90;100.00
21817;BME280;13247;47.504;7.382;2023-03-01T14:50:07;97420.75;;;4.08;100.00
21817;BME280;13247;47.504;7.382;2023-03-01T14:53:00;97419.94;;;4.01;100.00
21817;BME280;13247;47.504;7.382;2023-03-01T14:55:54;97417.25;;;4.15;100.00
21817;BME280;13247;47.504;7.382;2023-03-01T14:58:38;97412.06;;;4.18;100.00
21817;BME280;13247;47.504;7.382;2023-03-01T15:01:23;97420.81;;;4.03;100.00
21817;BME280;13247;47.504;7.382;2023-03-01T15:04:12;97414.63;;;4.21;100.00
21817;BME280;13247;47.504;7.382;2023-03-01T15:06:57;97413.75;;;4.31;100.00
21817;BME280;13247;47.504;7.382;2023-03-01T15:09:49;97413.56;;;4.58;100.00
21817;BME280;13247;47.504;7.382;2023-03-01T15:12:35;97412.78;;;4.39;100.00
21817;BME280;13247;47.504;7.382;2023-03-01T15:15:35;97419.03;;;4.11;100.00
21817;BME280;13247;47.504;7.382;2023-03-01T15:18:22;97415.38;;;4.42;100.00
21817;BME280;13247;47.504;7.382;2023-03-01T15:24:06;97404.94;;;4.53;100.00
21817;BME280;13247;47.504;7.382;2023-03-01T15:26:57;97395.41;;;4.55;100.00
21817;BME280;13247;47.504;7.382;2023-03-01T15:29:53;97387.66;;;4.52;100.00
21817;BME280;13247;47.504;7.382;2023-03-01T15:32:39;97389.28;;;4.62;99.72
21817;BME280;13247;47.504;7.382;2023-03-01T15:35:40;97383.22;;;4.61;99.72
21817;BME280;13247;47.504;7.382;2023-03-01T15:41:38;97378.97;;;4.56;100.00
21817;BME280;13247;47.504;7.382;2023-03-01T15:44:33;97380.66;;;4.60;100.00
21817;BME280;13247;47.504;7.382;2023-03-01T15:47:25;97390.31;;;4.41;100.00
21817;BME280;13247;47.504;7.382;2023-03-01T15:50:43;97380.72;;;4.54;100.00
21817;BME280;13247;47.504;7.382;2023-03-01T15:53:30;97384.94;;;4.64;100.00
21817;BME280;13247;47.504;7.382;2023-03-01T15:56:15;97377.34;;;4.37;100.00
21817;BME280;13247;47.504;7.382;2023-03-01T15:59:01;97380.66;;;4.57;100.00
21817;BME280;13247;47.504;7.382;2023-03-01T16:01:46;97389.19;;;4.71;100.00
21817;BME280;13247;47.504;7.382;2023-03-01T16:04:32;97393.50;;;4.76;100.00
21817;BME280;13247;47.504;7.382;2023-03-01T16:07:17;97382.38;;;4.61;100.00
21817;BME280;13247;47.504;7.382;2023-03-01T16:10:02;97391.78;;;4.75;100.00
21817;BME280;13247;47.504;7.382;2023-03-01T16:12:47;97388.34;;;4.69;100.00
21817;BME280;13247;47.504;7.382;2023-03-01T16:15:33;97400.69;;;4.41;100.00
21817;BME280;13247;47.504;7.382;2023-03-01T16:18:22;97391.09;;;4.54;100.00
21817;BME280;13247;47.504;7.382;2023-03-01T16:21:08;97382.47;;;4.49;100.00
21817;BME280;13247;47.504;7.382;2023-03-01T16:23:56;97385.06;;;4.47;100.00
21817;BME280;13247;47.504;7.382;2023-03-01T16:26:40;97385.13;;;4.41;100.00
21817;BME280;13247;47.504;7.382;2023-03-01T16:29:26;97383.38;;;4.42;100.00